createdAt,value
2018-09-05T00:02:22.709Z,29.40
2018-09-05T00:07:26.270Z,30.00
2018-09-05T00:12:30.023Z,33.03
2018-09-05T00:17:33.670Z,36.47
2018-09-05T00:22:37.311Z,35.53
2018-09-05T00:27:41.637Z,31.47
2018-09-05T00:32:45.366Z,31.77
2018-09-05T00:37:48.935Z,34.13
2018-09-05T00:42:52.724Z,36.73
2018-09-05T00:47:56.912Z,38.47
2018-09-05T00:53:00.937Z,40.30
2018-09-05T00:58:04.439Z,43.07
2018-09-05T01:03:07.981Z,40.23
2018-09-05T01:08:11.617Z,35.33
2018-09-05T01:13:15.249Z,37.40
2018-09-05T01:18:18.790Z,38.57
2018-09-05T01:23:22.381Z,41.23
2018-09-05T01:28:26.128Z,44.67
2018-09-05T01:33:29.878Z,47.57
2018-09-05T01:38:33.357Z,42.17
2018-09-05T01:43:36.942Z,41.37
2018-09-05T01:48:40.629Z,41.60
2018-09-05T01:53:44.377Z,39.37
2018-09-05T01:58:48.096Z,42.30
2018-09-05T02:03:52.211Z,36.97
2018-09-05T02:08:55.685Z,39.80
2018-09-05T02:13:59.773Z,37.33
2018-09-05T02:19:03.261Z,38.67
2018-09-05T02:24:06.840Z,36.33
2018-09-05T02:29:10.646Z,40.13
2018-09-05T02:34:14.150Z,37.37
2018-09-05T02:39:18.046Z,38.03
2018-09-05T02:44:23.351Z,40.93
2018-09-05T02:49:26.944Z,40.20
2018-09-05T02:54:30.587Z,46.97
2018-09-05T02:59:34.085Z,45.57
2018-09-05T03:04:37.947Z,45.03
2018-09-05T03:09:41.609Z,44.80
2018-09-05T03:14:45.493Z,42.73
2018-09-05T03:19:49.022Z,41.67
2018-09-05T03:24:52.539Z,38.07
2018-09-05T03:29:56.011Z,35.87
2018-09-05T03:34:59.890Z,42.20
2018-09-05T03:40:03.621Z,36.83
2018-09-05T03:45:08.025Z,40.40
2018-09-05T03:50:11.506Z,40.37
2018-09-05T03:55:15.191Z,40.60
2018-09-05T04:00:34.273Z,40.20
2018-09-05T04:05:38.011Z,41.60
2018-09-05T04:10:42.030Z,37.47
2018-09-05T04:15:46.060Z,40.63
2018-09-05T04:20:49.621Z,40.77
2018-09-05T04:25:54.537Z,40.73
2018-09-05T04:30:58.137Z,40.70
2018-09-05T04:36:02.462Z,34.30
2018-09-05T04:41:06.038Z,39.93
2018-09-05T04:46:09.752Z,35.10
2018-09-05T04:51:13.983Z,35.20
2018-09-05T04:56:17.581Z,36.17
2018-09-05T05:01:21.638Z,40.25
2018-09-05T05:06:25.715Z,33.70
2018-09-05T05:11:29.237Z,33.63
2018-09-05T05:16:32.787Z,31.53
2018-09-05T05:21:36.283Z,39.70
2018-09-05T05:26:40.074Z,42.23
2018-09-05T05:31:43.626Z,38.73
2018-09-05T05:36:47.621Z,32.23
2018-09-05T05:41:51.147Z,38.90
2018-09-05T05:46:54.977Z,41.20
2018-09-05T05:51:58.612Z,33.37
2018-09-05T05:57:02.331Z,34.70
2018-09-05T06:02:06.433Z,39.83
2018-09-05T06:07:10.057Z,40.33
2018-09-05T06:12:16.289Z,40.97
2018-09-05T06:17:20.291Z,40.50
2018-09-05T06:22:23.798Z,36.67
2018-09-05T06:27:27.741Z,34.57
2018-09-05T06:32:31.241Z,35.80
2018-09-05T06:37:35.263Z,30.03
2018-09-05T06:42:39.205Z,30.40
2018-09-05T06:47:42.730Z,30.53
2018-09-05T06:52:46.257Z,28.63
2018-09-05T06:57:49.822Z,26.53
2018-09-05T07:02:53.346Z,25.37
2018-09-05T07:07:58.176Z,28.93
2018-09-05T07:13:01.688Z,29.10
2018-09-05T07:18:05.400Z,22.10
2018-09-05T07:23:08.993Z,21.77
2018-09-05T07:28:12.641Z,24.00
2018-09-05T07:33:16.206Z,22.60
2018-09-05T07:38:20.282Z,21.70
2018-09-05T07:43:23.748Z,25.17
2018-09-05T07:48:27.409Z,22.83
2018-09-05T07:53:30.935Z,22.57
2018-09-05T07:58:34.539Z,20.57
2018-09-05T08:03:38.197Z,19.70
2018-09-05T08:08:41.920Z,19.53
2018-09-05T08:13:45.677Z,19.40
2018-09-05T08:18:49.298Z,17.77
2018-09-05T08:23:54.041Z,19.63
2018-09-05T08:28:58.093Z,18.87
2018-09-05T08:34:02.012Z,16.47
2018-09-05T08:39:11.634Z,17.87
2018-09-05T08:44:15.335Z,14.70
2018-09-05T08:49:18.726Z,15.30
2018-09-05T08:54:22.172Z,16.97
2018-09-05T08:59:25.682Z,14.57
2018-09-05T09:04:29.734Z,13.67
2018-09-05T09:09:33.400Z,15.00
2018-09-05T09:14:36.923Z,14.13
2018-09-05T09:19:40.447Z,9.90
2018-09-05T09:24:45.205Z,8.93
2018-09-05T09:29:49.402Z,11.63
2018-09-05T09:34:52.899Z,7.20
2018-09-05T09:39:56.456Z,9.03
2018-09-05T09:45:00.692Z,8.57
2018-09-05T09:50:04.431Z,9.37
2018-09-05T09:55:08.653Z,7.37
2018-09-05T10:00:15.014Z,10.30
2018-09-05T10:05:23.959Z,8.67
2018-09-05T10:10:32.715Z,9.37
2018-09-05T10:15:41.529Z,8.07
2018-09-05T10:20:45.522Z,6.23
2018-09-05T10:25:49.896Z,8.40
2018-09-05T10:30:53.564Z,7.73
2018-09-05T10:35:57.817Z,10.07
2018-09-05T10:41:01.439Z,8.27
2018-09-05T10:46:05.160Z,8.77
2018-09-05T10:51:09.369Z,10.57
2018-09-05T10:56:12.975Z,8.00
2018-09-05T11:01:16.529Z,7.27
2018-09-05T11:06:20.128Z,8.87
2018-09-05T11:11:23.783Z,10.70
2018-09-05T11:16:27.270Z,7.60
2018-09-05T11:21:30.913Z,10.00
2018-09-05T11:26:34.353Z,8.57
2018-09-05T11:31:37.908Z,7.13
2018-09-05T11:36:41.518Z,7.57
2018-09-05T11:41:45.097Z,7.40
2018-09-05T11:46:48.749Z,8.70
2018-09-05T11:51:52.776Z,6.50
2018-09-05T11:56:56.364Z,9.40
2018-09-05T12:02:00.011Z,8.07
2018-09-05T12:07:03.592Z,9.53
2018-09-05T12:12:07.212Z,8.63
2018-09-05T12:17:11.745Z,9.27
2018-09-05T12:22:15.691Z,7.90
2018-09-05T12:27:19.205Z,6.53
2018-09-05T12:32:22.763Z,6.40
2018-09-05T12:37:26.229Z,7.70
2018-09-05T12:42:29.932Z,7.93
2018-09-05T12:47:33.617Z,5.17
2018-09-05T12:52:37.383Z,6.80
2018-09-05T12:57:40.867Z,9.50
2018-09-05T13:02:44.777Z,6.30
2018-09-05T13:07:48.253Z,6.50
2018-09-05T13:12:51.844Z,7.20
2018-09-05T13:17:55.441Z,6.47
2018-09-05T13:22:58.975Z,7.97
2018-09-05T13:28:02.474Z,6.93
2018-09-05T13:33:06.571Z,5.73
2018-09-05T13:38:10.792Z,5.90
2018-09-05T13:43:14.540Z,5.90
2018-09-05T13:48:18.041Z,5.90
2018-09-05T13:53:21.589Z,8.53
2018-09-05T13:58:26.849Z,5.37
2018-09-05T14:03:30.422Z,6.13
2018-09-05T14:08:33.952Z,8.90
2018-09-05T14:13:37.517Z,6.57
2018-09-05T14:18:41.325Z,7.37
2018-09-05T14:23:45.386Z,5.97
2018-09-05T14:28:49.550Z,7.57
2018-09-05T14:33:53.229Z,5.87
2018-09-05T14:38:56.731Z,5.07
2018-09-05T14:44:00.309Z,12.07
2018-09-05T14:49:03.966Z,7.03
2018-09-05T14:54:07.770Z,6.13
2018-09-05T14:59:11.429Z,6.00
2018-09-05T15:04:15.609Z,8.27
2018-09-05T15:09:19.095Z,7.90
2018-09-05T15:14:23.002Z,6.60
2018-09-05T15:19:26.766Z,5.33
2018-09-05T15:24:30.293Z,8.27
2018-09-05T15:29:34.092Z,8.07
2018-09-05T15:34:38.723Z,6.97
2018-09-05T15:39:42.478Z,5.83
2018-09-05T15:44:46.032Z,9.10
2018-09-05T15:49:49.561Z,9.00
2018-09-05T15:54:53.342Z,8.53
2018-09-05T15:59:57.059Z,6.83
2018-09-05T16:05:00.784Z,7.80
2018-09-05T16:10:04.548Z,6.13
2018-09-05T16:15:08.344Z,6.33
2018-09-05T16:20:11.970Z,8.23
2018-09-05T16:25:16.311Z,6.33
2018-09-05T16:30:27.961Z,8.83
2018-09-05T16:35:31.560Z,8.03
2018-09-05T16:40:35.005Z,6.77
2018-09-05T16:45:39.440Z,7.00
2018-09-05T16:50:43.024Z,6.60
2018-09-05T16:55:46.552Z,7.07
2018-09-05T17:00:50.223Z,6.10
2018-09-05T17:05:55.902Z,8.07
2018-09-05T17:11:00.413Z,7.13
2018-09-05T17:16:04.178Z,7.30
2018-09-05T17:21:07.984Z,6.37
2018-09-05T17:26:12.244Z,7.50
2018-09-05T17:31:15.995Z,10.40
2018-09-05T17:36:19.540Z,5.87
2018-09-05T17:41:23.544Z,8.30
2018-09-05T17:46:27.293Z,7.80
2018-09-05T17:51:31.380Z,10.87
2018-09-05T17:56:35.012Z,8.07
2018-09-05T18:01:38.892Z,7.90
2018-09-05T18:06:43.096Z,7.60
2018-09-05T18:11:46.744Z,10.03
2018-09-05T18:16:50.220Z,10.27
2018-09-05T18:21:53.833Z,8.13
2018-09-05T18:26:57.347Z,5.30
2018-09-05T18:32:00.857Z,6.63
2018-09-05T18:37:04.471Z,5.77
2018-09-05T18:42:07.981Z,5.63
2018-09-05T18:47:11.515Z,5.50
2018-09-05T18:52:15.171Z,6.13
2018-09-05T18:57:18.705Z,5.53
2018-09-05T19:02:23.569Z,6.13
2018-09-05T19:07:27.106Z,6.97
2018-09-05T19:12:30.649Z,9.20
2018-09-05T19:17:34.152Z,7.93
2018-09-05T19:22:38.095Z,6.47
2018-09-05T19:27:42.105Z,6.27
2018-09-05T19:32:46.924Z,8.67
2018-09-05T19:37:50.474Z,8.20
2018-09-05T19:42:54.041Z,5.93
2018-09-05T19:47:58.097Z,7.97
2018-09-05T19:53:01.633Z,6.53
2018-09-05T19:58:05.206Z,6.27
2018-09-05T20:03:08.748Z,7.57
2018-09-05T20:08:12.501Z,6.50
2018-09-05T20:13:16.076Z,5.37
2018-09-05T20:18:19.555Z,6.37
2018-09-05T20:23:23.213Z,6.43
2018-09-05T20:28:26.733Z,8.80
2018-09-05T20:33:30.271Z,7.07
2018-09-05T20:38:33.737Z,9.80
2018-09-05T20:43:38.002Z,6.20
2018-09-05T20:48:41.687Z,8.30
2018-09-05T20:53:45.198Z,6.30
2018-09-05T20:58:48.728Z,6.03
2018-09-05T21:03:52.531Z,7.33
2018-09-05T21:08:56.027Z,8.00
2018-09-05T21:13:59.570Z,8.23
2018-09-05T21:19:03.345Z,7.93
2018-09-05T21:24:07.556Z,8.13
2018-09-05T21:29:11.314Z,5.23
2018-09-05T21:34:14.861Z,7.47
2018-09-05T21:39:18.346Z,5.70
2018-09-05T21:44:21.886Z,8.30
2018-09-05T21:49:26.702Z,8.13
2018-09-05T21:54:30.216Z,8.70
2018-09-05T21:59:33.821Z,10.33
2018-09-05T22:04:37.329Z,6.77
2018-09-05T22:09:40.814Z,7.17
2018-09-05T22:14:44.439Z,8.00
2018-09-05T22:19:58.203Z,8.23
2018-09-05T22:25:01.736Z,9.07
2018-09-05T22:30:05.716Z,8.20
2018-09-05T22:35:09.963Z,7.17
2018-09-05T22:40:13.548Z,7.03
2018-09-05T22:47:32.329Z,9.23
2018-09-05T22:54:57.161Z,10.40
2018-09-05T23:02:50.777Z,9.20
2018-09-05T23:08:36.215Z,10.73
2018-09-05T23:13:58.444Z,9.70
2018-09-05T23:19:29.374Z,13.33
2018-09-05T23:24:32.892Z,10.03
2018-09-05T23:29:36.446Z,10.40
2018-09-05T23:34:40.041Z,10.47
2018-09-05T23:39:44.070Z,10.77
2018-09-05T23:44:48.179Z,11.77
2018-09-05T23:49:51.856Z,11.73
2018-09-05T23:54:55.335Z,13.27
2018-09-05T23:59:58.975Z,10.80
